Have a Safe July 4th! 

Flight Track Log - Related Links

Times and Time Zones

All times are in EDT time to prevent confusion due to time zone crossing. See the CTL78 flight status page for this flight to view local times or setup timezone preferences in your user account.

Time Position Orientation Groundspeed Altitude Reporting Facility
EDT Latitude Longitude Course Direction KTS MPH feet Rate Location/Type
Fri 09:55:31 PM 42.2708 -83.5858 299° West 143 165 2,600  Level Cleveland Center
Fri 09:56:32 PM 42.2842 -83.6342 290° West 146 168 3,700 1,033 Climbing Cleveland Center
Fri 09:57:33 PM 42.2583 -83.6608 217° Southwest 141 162 4,700 609 Climbing Cleveland Center
Fri 09:58:40 PM 42.2125 -83.6672 186° South 145 167 5,000 141 Climbing Cleveland Center
Fri 09:59:41 PM 42.1667 -83.6678 181° South 168 193 5,000  Level Cleveland Center
Fri 10:00:42 PM 42.1231 -83.6600 172° South 167 192 5,000  Level Cleveland Center
Fri 10:01:36 PM 42.1036 -83.6086 117° Southeast 164 189 5,000  Level Cleveland Center
Fri 10:02:37 PM 42.0883 -83.5547 111° Southeast 163 188 5,000  Level Cleveland Center
Fri 10:03:38 PM 42.0606 -83.5003 124° Southeast 166 191 5,000  Level Cleveland Center
Fri 10:04:51 PM 42.0392 -83.4322 113° Southeast 164 189 5,000  Level Cleveland Center
Fri 10:05:52 PM 42.0197 -83.3753 115° Southeast 164 189 5,000  Level Cleveland Center
Fri 10:06:53 PM 42.0044 -83.3189 110° East 163 188 5,000  Level Cleveland Center
Fri 10:07:53 PM 41.9869 -83.2594 112° Southeast 165 190 5,000  Level Cleveland Center
Fri 10:08:54 PM 41.9717 -83.2028 110° East 164 189 5,000  Level Cleveland Center
Fri 10:09:55 PM 41.9564 -83.1464 110° East 165 190 5,000  Level Cleveland Center
Fri 10:10:56 PM 41.9367 -83.0897 115° Southeast 167 192 5,000  Level Cleveland Center
Fri 10:11:51 PM 41.9192 -83.0333 113° Southeast 167 192 5,000  Level Cleveland Center
Fri 10:12:45 PM 41.9036 -82.9825 112° Southeast 167 192 5,000  Level Cleveland Center
Fri 10:13:53 PM 41.8819 -82.9175 114° Southeast 165 190 5,000  Level Cleveland Center
Fri 10:14:11 PM 41.8783 -82.8978 104° East 165 190 5,000  Level Cleveland Center
Fri 10:15:18 PM 41.8608 -82.8303 109° East 167 192 5,000  Level Cleveland Center
Fri 10:16:18 PM 41.8453 -82.7711 109° East 169 194 5,000  Level Cleveland Center
Fri 10:17:19 PM 41.8275 -82.7122 112° Southeast 169 194 5,000  Level Cleveland Center
Fri 10:18:20 PM 41.8119 -82.6558 110° East 171 197 5,000 50 Level Cleveland Center
Fri 10:19:20 PM 41.7922 -82.5994 115° Southeast 169 194 5,100  Climbing Cleveland Center
Fri 10:20:33 PM 41.7725 -82.5236 109° East 173 199 5,000 -47 Descending Cleveland Center
Fri 10:21:27 PM 41.7547 -82.4703 114° Southeast 174 200 5,000 -157 Level Cleveland Center
Fri 10:22:28 PM 41.7308 -82.4083 117° Southeast 179 206 4,700 -344 Descending Cleveland Center
Fri 10:23:29 PM 41.7108 -82.3467 113° Southeast 184 212 4,300 -397 Descending Cleveland Center
Fri 10:24:29 PM 41.6931 -82.2878 112° Southeast 178 205 3,900 -446 Descending Cleveland Center
Fri 10:26:24 PM 41.6633 -82.1703 109° East 169 194 3,000 -273 Descending Cleveland Center
Fri 10:27:25 PM 41.6539 -82.1089 102° East 164 189 3,100 -141 Climbing Cleveland Center
Fri 10:28:32 PM 41.6339 -82.0444 113° Southeast 167 192 2,700 -226 Descending Cleveland Center
Fri 10:29:38 PM 41.6053 -81.9856 123° Southeast 166 191 2,600 -198 Descending Cleveland Center
Fri 10:30:33 PM 41.5872 -81.9350 116° Southeast 169 194 2,300 -259 Descending Cleveland Center
Fri 10:31:34 PM 41.5650 -81.8792 118° Southeast 167 192 2,100 -198 Descending Cleveland Center
Fri 10:32:34 PM 41.5403 -81.8314 125° Southeast 161 185 1,900 -248 Descending Cleveland Center
Fri 10:33:35 PM 41.5200 -81.7811 118° Southeast 148 170 1,600 -328 Descending Cleveland Center
Fri 10:34:42 PM 41.5081 -81.7283 107° East 126 145 1,200 -358 Descending Cleveland Center

Login

Don't have an account? Register now (free) for customized features, flight alerts, and more!